createdAt,value
2022-07-29T00:00:58.620Z,19.36
2022-07-29T00:01:58.631Z,19.44
2022-07-29T00:02:58.685Z,19.41
2022-07-29T00:03:58.681Z,19.41
2022-07-29T00:04:58.574Z,19.46
2022-07-29T00:05:58.556Z,19.41
2022-07-29T00:06:58.556Z,19.44
2022-07-29T00:07:58.533Z,19.50
2022-07-29T00:08:58.535Z,19.40
2022-07-29T00:09:58.574Z,19.50
2022-07-29T00:10:58.503Z,19.47
2022-07-29T00:11:58.497Z,19.48
2022-07-29T00:12:58.465Z,19.47
2022-07-29T00:13:58.512Z,19.39
2022-07-29T00:14:58.442Z,19.39
2022-07-29T00:15:58.517Z,19.33
2022-07-29T00:16:59.439Z,19.25
2022-07-29T00:17:58.427Z,19.23
2022-07-29T00:19:01.892Z,19.26
2022-07-29T00:19:58.475Z,19.16
2022-07-29T00:20:58.374Z,19.13
2022-07-29T00:21:58.386Z,19.08
2022-07-29T00:22:58.367Z,19.06
2022-07-29T00:23:58.377Z,19.07
2022-07-29T00:24:58.330Z,19.04
2022-07-29T00:25:58.399Z,19.06
2022-07-29T00:26:58.315Z,19.06
2022-07-29T00:27:58.302Z,19.06
2022-07-29T00:29:30.761Z,19.04
2022-07-29T00:29:59.275Z,19.04
2022-07-29T00:30:58.262Z,18.95
2022-07-29T00:31:58.368Z,19.00
2022-07-29T00:32:58.259Z,18.92
2022-07-29T00:33:58.244Z,18.90
2022-07-29T00:34:58.273Z,18.92
2022-07-29T00:35:58.208Z,18.88
2022-07-29T00:36:58.253Z,18.99
2022-07-29T00:37:58.188Z,18.90
2022-07-29T00:38:58.215Z,18.91
2022-07-29T00:39:58.205Z,19.02
2022-07-29T00:40:58.150Z,18.94
2022-07-29T00:41:58.140Z,19.02
2022-07-29T00:42:58.145Z,19.00
2022-07-29T00:43:58.131Z,18.91
2022-07-29T00:44:58.161Z,18.90
2022-07-29T00:45:58.139Z,18.99
2022-07-29T00:46:58.163Z,18.85
2022-07-29T00:47:58.078Z,18.90
2022-07-29T00:48:58.209Z,19.06
2022-07-29T00:49:58.072Z,18.90
2022-07-29T00:50:58.054Z,18.99
2022-07-29T00:51:58.044Z,19.04
2022-07-29T00:52:58.075Z,19.04
2022-07-29T00:53:58.006Z,19.06
2022-07-29T00:54:58.001Z,19.04
2022-07-29T00:55:57.989Z,19.02
2022-07-29T00:56:58.012Z,19.11
2022-07-29T00:57:57.997Z,19.14
2022-07-29T00:58:57.951Z,19.08
2022-07-29T00:59:57.941Z,19.13
2022-07-29T01:00:58.021Z,19.16
2022-07-29T01:01:58.008Z,19.02
2022-07-29T01:02:57.929Z,19.19
2022-07-29T01:03:57.949Z,19.07
2022-07-29T01:04:57.885Z,19.06
2022-07-29T01:05:57.960Z,19.04
2022-07-29T01:06:57.882Z,19.14
2022-07-29T01:07:57.902Z,19.04
2022-07-29T01:08:57.861Z,19.02
2022-07-29T01:09:57.876Z,19.06
2022-07-29T01:10:57.832Z,19.06
2022-07-29T01:11:57.838Z,19.04
2022-07-29T01:12:57.794Z,19.04
2022-07-29T01:13:57.865Z,19.04
2022-07-29T01:14:57.770Z,19.06
2022-07-29T01:15:57.894Z,18.91
2022-07-29T01:16:57.762Z,19.02
2022-07-29T01:17:57.757Z,18.88
2022-07-29T01:18:57.733Z,18.90
2022-07-29T01:19:57.745Z,18.94
2022-07-29T01:20:57.702Z,18.91
2022-07-29T01:21:57.695Z,18.94
2022-07-29T01:22:57.725Z,18.82
2022-07-29T01:23:57.679Z,18.91
2022-07-29T01:24:57.673Z,18.85
2022-07-29T01:25:57.785Z,18.94
2022-07-29T01:26:57.687Z,18.87
2022-07-29T01:27:57.625Z,18.84
2022-07-29T01:28:57.627Z,18.80
2022-07-29T01:29:58.226Z,18.80
2022-07-29T01:30:57.700Z,18.78
2022-07-29T01:31:59.627Z,18.78
2022-07-29T01:32:57.615Z,18.80
2022-07-29T01:33:57.559Z,18.81
2022-07-29T01:34:57.582Z,18.80
2022-07-29T01:35:57.554Z,18.78
2022-07-29T01:36:57.540Z,18.90
2022-07-29T01:37:57.514Z,18.73
2022-07-29T01:38:57.499Z,18.78
2022-07-29T01:39:57.495Z,18.80
2022-07-29T01:40:57.515Z,18.70
2022-07-29T01:41:57.492Z,18.78
2022-07-29T01:42:57.458Z,18.72
2022-07-29T01:43:57.446Z,18.73
2022-07-29T01:44:57.435Z,18.75
2022-07-29T01:45:57.426Z,18.78
2022-07-29T01:46:57.499Z,18.80
2022-07-29T01:47:57.432Z,18.80
2022-07-29T01:48:58.067Z,18.80
2022-07-29T01:49:57.377Z,18.81
2022-07-29T01:50:57.365Z,18.69
2022-07-29T01:51:57.378Z,18.66
2022-07-29T01:52:57.358Z,18.76
2022-07-29T01:53:57.405Z,18.80
2022-07-29T01:54:57.323Z,18.72
2022-07-29T01:55:57.310Z,18.78
2022-07-29T01:56:57.306Z,18.82
2022-07-29T01:57:57.290Z,18.84
2022-07-29T01:58:57.318Z,18.72
2022-07-29T01:59:57.307Z,18.81
2022-07-29T02:00:57.257Z,18.82
2022-07-29T02:01:57.304Z,18.70
2022-07-29T02:02:57.259Z,18.81
2022-07-29T02:03:57.237Z,18.76
2022-07-29T02:04:57.296Z,18.76
2022-07-29T02:05:57.210Z,18.66
2022-07-29T02:06:57.189Z,18.67
2022-07-29T02:07:57.180Z,18.67
2022-07-29T02:08:57.198Z,18.70
2022-07-29T02:09:57.204Z,18.62
2022-07-29T02:10:57.169Z,18.69
2022-07-29T02:11:57.133Z,18.63
2022-07-29T02:12:57.150Z,18.65
2022-07-29T02:13:57.122Z,18.65
2022-07-29T02:14:57.112Z,18.57
2022-07-29T02:15:57.190Z,18.57
2022-07-29T02:16:57.076Z,18.55
2022-07-29T02:17:57.126Z,18.63
2022-07-29T02:18:57.137Z,18.57
2022-07-29T02:19:57.093Z,18.54
2022-07-29T02:20:57.056Z,18.55
2022-07-29T02:21:57.038Z,18.55
2022-07-29T02:22:57.008Z,18.55
2022-07-29T02:23:57.002Z,18.55
2022-07-29T02:24:57.032Z,18.54
2022-07-29T02:25:56.988Z,18.52
2022-07-29T02:26:56.979Z,18.48
2022-07-29T02:27:56.985Z,18.52
2022-07-29T02:28:56.939Z,18.55
2022-07-29T02:29:57.003Z,18.51
2022-07-29T02:30:57.022Z,18.51
2022-07-29T02:31:56.921Z,18.48
2022-07-29T02:32:56.909Z,18.47
2022-07-29T02:33:56.887Z,18.45
2022-07-29T02:34:56.886Z,18.41
2022-07-29T02:35:56.901Z,18.45
2022-07-29T02:36:56.875Z,18.41
2022-07-29T02:37:56.862Z,18.36
2022-07-29T02:38:56.845Z,18.32
2022-07-29T02:39:56.818Z,18.35
2022-07-29T02:40:56.806Z,18.36
2022-07-29T02:41:56.843Z,18.33
2022-07-29T02:42:56.783Z,18.41
2022-07-29T02:43:56.796Z,18.44
2022-07-29T02:44:56.759Z,18.45
2022-07-29T02:45:56.906Z,18.45
2022-07-29T02:46:56.816Z,18.45
2022-07-29T02:47:56.742Z,18.47
2022-07-29T02:48:56.776Z,18.51
2022-07-29T02:49:56.730Z,18.48
2022-07-29T02:50:56.689Z,18.55
2022-07-29T02:51:56.706Z,18.51
2022-07-29T02:52:56.678Z,18.52
2022-07-29T02:53:56.656Z,18.44
2022-07-29T02:54:56.695Z,18.48
2022-07-29T02:55:56.664Z,18.51
2022-07-29T02:56:56.621Z,18.48
2022-07-29T02:57:56.612Z,18.44
2022-07-29T02:58:56.615Z,18.55
2022-07-29T02:59:56.594Z,18.36
2022-07-29T03:00:56.624Z,18.39
2022-07-29T03:01:56.638Z,18.35
2022-07-29T03:02:56.556Z,18.29
2022-07-29T03:03:56.544Z,18.30
2022-07-29T03:04:56.739Z,18.17
2022-07-29T03:05:56.570Z,18.25
2022-07-29T03:06:56.531Z,18.25
2022-07-29T03:07:56.508Z,18.14
2022-07-29T03:08:56.505Z,18.15
2022-07-29T03:09:56.488Z,18.08
2022-07-29T03:10:56.511Z,18.18
2022-07-29T03:11:56.502Z,18.11
2022-07-29T03:12:56.446Z,18.14
2022-07-29T03:13:56.430Z,18.07
2022-07-29T03:14:56.418Z,18.02
2022-07-29T03:15:56.522Z,18.00
2022-07-29T03:16:56.461Z,18.00
2022-07-29T03:17:56.414Z,17.97
2022-07-29T03:18:56.372Z,17.93
2022-07-29T03:19:56.362Z,17.92
2022-07-29T03:20:56.354Z,17.89
2022-07-29T03:21:56.456Z,17.84
2022-07-29T03:22:56.360Z,17.90
2022-07-29T03:23:56.362Z,17.84
2022-07-29T03:24:56.307Z,17.87
2022-07-29T03:25:56.299Z,17.81
2022-07-29T03:26:56.294Z,17.84
2022-07-29T03:27:56.281Z,17.82
2022-07-29T03:28:56.275Z,17.78
2022-07-29T03:29:56.304Z,17.72
2022-07-29T03:30:56.278Z,17.70
2022-07-29T03:31:56.227Z,17.72
2022-07-29T03:32:56.678Z,17.68
2022-07-29T03:33:56.234Z,17.74
2022-07-29T03:34:56.226Z,17.75
2022-07-29T03:35:56.226Z,17.71
2022-07-29T03:36:56.171Z,17.71
2022-07-29T03:37:56.165Z,17.77
2022-07-29T03:38:56.184Z,17.63
2022-07-29T03:39:56.145Z,17.55
2022-07-29T03:40:56.129Z,17.56
2022-07-29T03:41:56.112Z,17.55
2022-07-29T03:42:56.114Z,17.46
2022-07-29T03:43:56.117Z,17.43
2022-07-29T03:44:56.124Z,17.40
2022-07-29T03:45:56.130Z,17.37
2022-07-29T03:46:56.058Z,17.40
2022-07-29T03:48:00.641Z,17.46
2022-07-29T03:48:57.098Z,17.36
2022-07-29T03:49:56.053Z,17.43
2022-07-29T03:50:56.055Z,17.34
2022-07-29T03:51:56.037Z,17.37
2022-07-29T03:52:55.996Z,17.34
2022-07-29T03:53:55.981Z,17.34
2022-07-29T03:54:55.978Z,17.36
2022-07-29T03:55:55.993Z,17.44
2022-07-29T03:56:55.956Z,17.40
2022-07-29T03:57:55.931Z,17.34
2022-07-29T03:58:55.921Z,17.33
2022-07-29T03:59:55.911Z,17.25
2022-07-29T04:00:55.930Z,17.22
2022-07-29T04:01:55.969Z,17.23
2022-07-29T04:02:55.899Z,17.21
2022-07-29T04:03:56.533Z,17.21
2022-07-29T04:04:55.853Z,17.14
2022-07-29T04:05:55.894Z,17.22
2022-07-29T04:06:55.839Z,17.19
2022-07-29T04:07:55.836Z,17.21
2022-07-29T04:08:55.847Z,17.08
2022-07-29T04:09:55.795Z,17.18
2022-07-29T04:10:55.786Z,17.15
2022-07-29T04:12:02.197Z,17.07
2022-07-29T04:12:56.779Z,17.08
2022-07-29T04:13:55.774Z,17.22
2022-07-29T04:14:55.792Z,17.12
2022-07-29T04:15:55.791Z,17.18
2022-07-29T04:16:55.724Z,17.15
2022-07-29T04:17:55.710Z,17.15
2022-07-29T04:18:55.700Z,17.15
2022-07-29T04:19:55.729Z,17.14
2022-07-29T04:20:55.715Z,17.12
2022-07-29T04:21:55.659Z,17.12
2022-07-29T04:22:55.662Z,17.15
2022-07-29T04:23:55.645Z,17.12
2022-07-29T04:24:58.012Z,17.12
2022-07-29T04:25:55.612Z,17.21
2022-07-29T04:26:55.602Z,17.18
2022-07-29T04:27:55.593Z,17.22
2022-07-29T04:28:55.579Z,17.31
2022-07-29T04:29:57.089Z,17.38
2022-07-29T04:30:55.649Z,17.34
2022-07-29T04:31:55.548Z,17.38
2022-07-29T04:32:55.537Z,17.43
2022-07-29T04:33:56.069Z,17.44
2022-07-29T04:34:55.526Z,17.56
2022-07-29T04:35:55.528Z,17.54
2022-07-29T04:36:55.490Z,17.52
2022-07-29T04:37:55.478Z,17.62
2022-07-29T04:38:55.470Z,17.59
2022-07-29T04:39:55.476Z,17.58
2022-07-29T04:40:55.482Z,17.68
2022-07-29T04:41:56.404Z,17.62
2022-07-29T04:42:55.420Z,17.64
2022-07-29T04:43:57.013Z,17.68
2022-07-29T04:44:55.400Z,17.74
2022-07-29T04:45:55.443Z,17.68
2022-07-29T04:46:55.397Z,17.68
2022-07-29T04:47:55.365Z,17.70
2022-07-29T04:48:55.462Z,17.81
2022-07-29T04:49:55.372Z,17.79
2022-07-29T04:50:55.361Z,17.82
2022-07-29T04:51:55.358Z,17.82
2022-07-29T04:52:55.321Z,17.75
2022-07-29T04:53:55.296Z,17.74
2022-07-29T04:54:55.288Z,17.78
2022-07-29T04:55:55.283Z,17.81
2022-07-29T04:56:55.294Z,17.82
2022-07-29T04:57:55.267Z,17.84
2022-07-29T04:58:55.263Z,17.79
2022-07-29T04:59:55.227Z,17.78
2022-07-29T05:00:55.220Z,17.75
2022-07-29T05:01:55.395Z,17.62
2022-07-29T05:02:55.411Z,17.63
2022-07-29T05:04:00.145Z,17.54
2022-07-29T05:04:56.265Z,17.64
2022-07-29T05:05:55.182Z,17.58
2022-07-29T05:06:55.168Z,17.58
2022-07-29T05:07:55.206Z,17.75
2022-07-29T05:08:55.232Z,17.71
2022-07-29T05:09:55.180Z,17.58
2022-07-29T05:10:55.231Z,17.58
2022-07-29T05:11:55.127Z,17.46
2022-07-29T05:12:55.116Z,17.58
2022-07-29T05:13:55.107Z,17.48
2022-07-29T05:14:55.097Z,17.52
2022-07-29T05:15:55.161Z,17.51
2022-07-29T05:16:55.105Z,17.48
2022-07-29T05:17:55.092Z,17.52
2022-07-29T05:18:55.049Z,17.54
2022-07-29T05:19:55.060Z,17.52
2022-07-29T05:20:55.019Z,17.46
2022-07-29T05:21:55.035Z,17.59
2022-07-29T05:22:54.984Z,17.59
2022-07-29T05:23:54.974Z,17.63
2022-07-29T05:24:54.957Z,17.75
2022-07-29T05:25:54.961Z,17.78
2022-07-29T05:26:54.982Z,17.86
2022-07-29T05:27:54.910Z,17.87
2022-07-29T05:28:54.926Z,17.90
2022-07-29T05:29:54.899Z,17.93
2022-07-29T05:30:54.977Z,18.03
2022-07-29T05:31:54.879Z,18.00
2022-07-29T05:32:54.856Z,18.07
2022-07-29T05:33:54.897Z,18.08
2022-07-29T05:34:54.878Z,18.12
2022-07-29T05:35:59.950Z,18.08
2022-07-29T05:36:55.811Z,18.08
2022-07-29T05:37:54.828Z,18.05
2022-07-29T05:38:54.792Z,18.15
2022-07-29T05:39:57.183Z,18.14
2022-07-29T05:40:54.850Z,18.25
2022-07-29T05:41:54.761Z,18.23
2022-07-29T05:42:54.763Z,18.23
2022-07-29T05:43:54.732Z,18.25
2022-07-29T05:44:54.734Z,18.44
2022-07-29T05:45:54.724Z,18.41
2022-07-29T05:46:54.749Z,18.42
2022-07-29T05:47:54.712Z,18.48
2022-07-29T05:48:54.767Z,18.57
2022-07-29T05:49:54.662Z,18.52
2022-07-29T05:50:54.715Z,18.52
2022-07-29T05:51:54.643Z,18.60
2022-07-29T05:52:54.637Z,18.63
2022-07-29T05:53:54.654Z,18.67
2022-07-29T05:54:54.651Z,18.69
2022-07-29T05:55:54.596Z,18.75
2022-07-29T05:56:54.587Z,18.75
2022-07-29T05:57:54.599Z,18.81
2022-07-29T05:58:54.601Z,18.81
2022-07-29T05:59:54.569Z,18.91
2022-07-29T06:00:54.594Z,18.88
2022-07-29T06:01:54.614Z,18.87
2022-07-29T06:02:54.518Z,18.90
2022-07-29T06:04:02.696Z,19.06
2022-07-29T06:04:54.539Z,19.07
2022-07-29T06:05:54.522Z,19.07
2022-07-29T06:06:54.529Z,19.16
2022-07-29T06:07:54.468Z,19.16
2022-07-29T06:08:54.460Z,19.21
2022-07-29T06:09:54.460Z,19.26
2022-07-29T06:10:54.453Z,19.23
2022-07-29T06:11:54.416Z,19.33
2022-07-29T06:12:54.453Z,19.37
2022-07-29T06:13:54.392Z,19.33
2022-07-29T06:14:54.455Z,19.43
2022-07-29T06:15:54.430Z,19.41
2022-07-29T06:16:54.371Z,19.47
2022-07-29T06:17:58.948Z,19.51
2022-07-29T06:18:55.384Z,19.50
2022-07-29T06:19:54.327Z,19.55
2022-07-29T06:20:54.316Z,19.61
2022-07-29T06:21:54.333Z,19.58
2022-07-29T06:22:54.349Z,19.56
2022-07-29T06:23:54.338Z,19.62
2022-07-29T06:24:54.269Z,19.61
2022-07-29T06:25:54.278Z,19.58
2022-07-29T06:26:54.264Z,19.71
2022-07-29T06:27:54.268Z,19.69
2022-07-29T06:28:54.252Z,19.77
2022-07-29T06:29:54.274Z,19.77
2022-07-29T06:30:54.273Z,19.77
2022-07-29T06:31:54.211Z,19.73
2022-07-29T06:32:54.227Z,19.71
2022-07-29T06:33:54.666Z,19.81
2022-07-29T06:35:02.735Z,19.87
2022-07-29T06:35:55.333Z,19.98
2022-07-29T06:36:54.290Z,19.99
2022-07-29T06:37:54.146Z,20.06
2022-07-29T06:38:54.138Z,20.08
2022-07-29T06:39:57.939Z,20.18
2022-07-29T06:40:55.127Z,20.26
2022-07-29T06:41:54.077Z,20.29
2022-07-29T06:42:54.093Z,20.29
2022-07-29T06:43:55.232Z,20.42
2022-07-29T06:44:54.066Z,20.42
2022-07-29T06:45:54.270Z,20.41
2022-07-29T06:46:54.023Z,20.50
2022-07-29T06:47:54.011Z,20.57
2022-07-29T06:48:54.155Z,20.52
2022-07-29T06:49:54.009Z,20.61
2022-07-29T06:50:54.017Z,20.69
2022-07-29T06:51:54.034Z,20.61
2022-07-29T06:52:53.959Z,20.66
2022-07-29T06:53:59.322Z,20.66
2022-07-29T06:54:54.969Z,20.74
2022-07-29T06:55:53.950Z,20.74
2022-07-29T06:56:53.960Z,20.82
2022-07-29T06:57:53.898Z,20.85
2022-07-29T06:58:53.891Z,20.85
2022-07-29T06:59:53.889Z,20.85
2022-07-29T07:00:53.970Z,21.04
2022-07-29T07:01:53.868Z,21.01
2022-07-29T07:02:53.953Z,21.16
2022-07-29T07:03:53.915Z,21.17
2022-07-29T07:04:53.820Z,21.22
2022-07-29T07:05:53.826Z,21.29
2022-07-29T07:06:53.828Z,21.37
2022-07-29T07:07:53.827Z,21.38
2022-07-29T07:08:53.775Z,21.47
2022-07-29T07:09:53.791Z,21.40
2022-07-29T07:10:53.760Z,21.44
2022-07-29T07:11:53.748Z,21.53
2022-07-29T07:12:53.744Z,21.50
2022-07-29T07:13:53.721Z,21.50
2022-07-29T07:14:53.752Z,21.47
2022-07-29T07:15:53.718Z,21.46
2022-07-29T07:16:53.725Z,21.38
2022-07-29T07:17:53.705Z,21.46
2022-07-29T07:18:53.735Z,21.53
2022-07-29T07:19:53.657Z,21.58
2022-07-29T07:20:53.643Z,21.62
2022-07-29T07:21:53.632Z,21.68
2022-07-29T07:22:53.653Z,21.74
2022-07-29T07:23:53.638Z,21.83
2022-07-29T07:24:53.651Z,21.82
2022-07-29T07:25:53.586Z,21.84
2022-07-29T07:26:53.573Z,21.79
2022-07-29T07:27:53.577Z,21.92
2022-07-29T07:28:53.570Z,22.02
2022-07-29T07:29:53.592Z,22.02
2022-07-29T07:30:53.531Z,22.09
2022-07-29T07:31:58.859Z,22.20
2022-07-29T07:32:54.514Z,22.17
2022-07-29T07:33:53.533Z,22.22
2022-07-29T07:34:53.516Z,22.24
2022-07-29T07:35:53.506Z,22.28
2022-07-29T07:36:53.498Z,22.27
2022-07-29T07:37:53.451Z,22.36
2022-07-29T07:38:53.444Z,22.33
2022-07-29T07:39:53.427Z,22.39
2022-07-29T07:40:53.460Z,22.36
2022-07-29T07:41:53.434Z,22.33
2022-07-29T07:42:53.450Z,22.36
2022-07-29T07:43:53.380Z,22.39
2022-07-29T07:45:12.626Z,22.43
2022-07-29T07:45:54.450Z,22.57
2022-07-29T07:46:53.381Z,22.57
2022-07-29T07:47:53.379Z,22.64
2022-07-29T07:48:53.426Z,22.70
2022-07-29T07:49:53.322Z,22.68
2022-07-29T07:50:53.323Z,22.80
2022-07-29T07:51:53.314Z,22.82
2022-07-29T07:52:53.305Z,22.82
2022-07-29T07:53:53.314Z,22.80
2022-07-29T07:54:53.259Z,22.83
2022-07-29T07:56:09.804Z,22.91
2022-07-29T07:56:54.264Z,22.94
2022-07-29T07:57:53.235Z,22.98
2022-07-29T07:58:53.214Z,22.94
2022-07-29T07:59:53.215Z,23.02
2022-07-29T08:00:53.284Z,23.16
2022-07-29T08:01:56.135Z,23.20
2022-07-29T08:02:53.364Z,23.20
2022-07-29T08:03:53.183Z,23.20
2022-07-29T08:04:53.145Z,23.23
2022-07-29T08:05:53.161Z,23.31
2022-07-29T08:06:53.129Z,23.33
2022-07-29T08:07:53.125Z,23.43
2022-07-29T08:08:56.277Z,23.46
2022-07-29T08:09:53.112Z,23.48
2022-07-29T08:10:54.157Z,23.55
2022-07-29T08:11:53.067Z,23.57
2022-07-29T08:12:53.070Z,23.58
2022-07-29T08:13:53.058Z,23.60
2022-07-29T08:14:53.047Z,23.53
2022-07-29T08:15:53.023Z,23.63
2022-07-29T08:16:53.102Z,23.61
2022-07-29T08:17:53.001Z,23.61
2022-07-29T08:18:53.041Z,23.61
2022-07-29T08:19:52.993Z,23.70
2022-07-29T08:20:52.984Z,23.76
2022-07-29T08:21:53.337Z,23.70
2022-07-29T08:22:53.005Z,23.75
2022-07-29T08:23:59.602Z,23.79
2022-07-29T08:24:55.582Z,23.84
2022-07-29T08:25:54.825Z,23.85
2022-07-29T08:26:52.898Z,23.90
2022-07-29T08:27:52.934Z,23.91
2022-07-29T08:28:52.878Z,23.94
2022-07-29T08:29:52.976Z,24.00
2022-07-29T08:30:52.875Z,24.02
2022-07-29T08:31:53.272Z,24.02
2022-07-29T08:32:54.539Z,24.03
2022-07-29T08:33:52.841Z,24.05
2022-07-29T08:34:52.813Z,24.18
2022-07-29T08:35:52.809Z,24.27
2022-07-29T08:36:52.825Z,24.37
2022-07-29T08:37:52.801Z,24.30
2022-07-29T08:38:52.762Z,24.39
2022-07-29T08:39:52.752Z,24.47
2022-07-29T08:40:52.789Z,24.47
2022-07-29T08:41:57.175Z,24.58
2022-07-29T08:42:53.722Z,24.57
2022-07-29T08:43:52.750Z,24.69
2022-07-29T08:44:52.697Z,24.60
2022-07-29T08:45:52.753Z,24.68
2022-07-29T08:46:52.725Z,24.65
2022-07-29T08:47:52.673Z,24.76
2022-07-29T08:48:52.775Z,24.80
2022-07-29T08:49:52.646Z,24.67
2022-07-29T08:50:52.655Z,24.65
2022-07-29T08:51:52.629Z,24.69
2022-07-29T08:52:56.563Z,24.67
2022-07-29T08:53:53.634Z,24.71
2022-07-29T08:54:52.624Z,24.78
2022-07-29T08:55:52.647Z,24.81
2022-07-29T08:56:52.564Z,24.83
2022-07-29T08:57:54.571Z,24.90
2022-07-29T08:58:52.777Z,24.84
2022-07-29T08:59:52.573Z,24.98
2022-07-29T09:00:52.588Z,24.98
2022-07-29T09:01:52.889Z,25.08
2022-07-29T09:04:49.333Z,25.20
2022-07-29T09:05:49.252Z,25.27
2022-07-29T09:06:49.247Z,25.24
2022-07-29T09:07:49.251Z,25.39
2022-07-29T09:08:49.381Z,25.42
2022-07-29T09:09:49.366Z,25.51
2022-07-29T09:10:49.196Z,25.46
2022-07-29T09:11:49.542Z,25.54
2022-07-29T09:12:49.303Z,25.51
2022-07-29T09:13:49.214Z,25.52
2022-07-29T09:14:49.141Z,25.60
2022-07-29T09:15:49.204Z,25.70
2022-07-29T09:17:01.076Z,25.77
2022-07-29T09:17:50.131Z,25.90
2022-07-29T09:18:49.148Z,25.98
2022-07-29T09:19:49.082Z,25.95
2022-07-29T09:20:49.095Z,25.94
2022-07-29T09:21:49.070Z,25.95
2022-07-29T09:22:49.053Z,25.97
2022-07-29T09:23:49.069Z,25.99
2022-07-29T09:24:49.054Z,26.05
2022-07-29T09:25:49.068Z,26.05
2022-07-29T09:26:49.018Z,26.09
2022-07-29T09:27:49.013Z,26.05
2022-07-29T09:28:48.990Z,26.09
2022-07-29T09:29:49.039Z,26.06
2022-07-29T09:30:48.994Z,26.23
2022-07-29T09:31:49.163Z,26.05
2022-07-29T09:32:48.942Z,26.10
2022-07-29T09:33:48.949Z,26.18
2022-07-29T09:34:48.949Z,26.23
2022-07-29T09:35:56.435Z,26.28
2022-07-29T09:36:49.999Z,26.28
2022-07-29T09:37:48.898Z,26.33
2022-07-29T09:38:48.914Z,26.30
2022-07-29T09:39:48.873Z,26.26
2022-07-29T09:40:48.896Z,26.29
2022-07-29T09:41:48.875Z,26.21
2022-07-29T09:42:48.833Z,26.05
2022-07-29T09:43:48.838Z,25.98
2022-07-29T09:44:48.857Z,26.07
2022-07-29T09:45:48.818Z,25.99
2022-07-29T09:46:48.905Z,26.02
2022-07-29T09:47:48.776Z,25.98
2022-07-29T09:48:48.830Z,25.98
2022-07-29T09:49:48.782Z,25.95
2022-07-29T09:50:48.770Z,25.99
2022-07-29T09:51:48.775Z,25.99
2022-07-29T09:52:48.753Z,26.07
2022-07-29T09:53:48.754Z,26.07
2022-07-29T09:54:48.698Z,26.21
2022-07-29T09:55:48.718Z,26.28
2022-07-29T09:56:48.891Z,26.20
2022-07-29T09:57:48.720Z,26.21
2022-07-29T09:58:48.697Z,26.21
2022-07-29T09:59:50.517Z,26.26
2022-07-29T10:00:48.702Z,26.32
2022-07-29T10:01:48.625Z,26.39
2022-07-29T10:02:48.628Z,26.51
2022-07-29T10:03:48.696Z,26.50
2022-07-29T10:04:48.646Z,26.60
2022-07-29T10:05:48.588Z,26.70
2022-07-29T10:06:48.570Z,26.72
2022-07-29T10:07:53.517Z,26.63
2022-07-29T10:08:49.603Z,26.58
2022-07-29T10:09:48.550Z,26.60
2022-07-29T10:10:48.524Z,26.54
2022-07-29T10:11:49.453Z,26.51
2022-07-29T10:12:49.518Z,26.50
2022-07-29T10:13:48.512Z,26.51
2022-07-29T10:14:48.522Z,26.44
2022-07-29T10:15:48.558Z,26.45
2022-07-29T10:16:48.462Z,26.48
2022-07-29T10:17:48.446Z,26.45
2022-07-29T10:18:48.472Z,26.50
2022-07-29T10:19:48.451Z,26.51
2022-07-29T10:20:48.430Z,26.58
2022-07-29T10:21:48.476Z,26.52
2022-07-29T10:22:53.431Z,26.51
2022-07-29T10:23:49.416Z,26.51
2022-07-29T10:24:48.383Z,26.69
2022-07-29T10:25:48.383Z,26.70
2022-07-29T10:26:48.375Z,26.72
2022-07-29T10:27:48.340Z,26.81
2022-07-29T10:28:48.391Z,26.82
2022-07-29T10:29:48.389Z,26.80
2022-07-29T10:30:48.337Z,26.75
2022-07-29T10:31:48.352Z,26.73
2022-07-29T10:32:51.244Z,26.77
2022-07-29T10:33:49.396Z,26.73
2022-07-29T10:34:48.361Z,26.82
2022-07-29T10:35:48.422Z,26.76
2022-07-29T10:36:48.272Z,26.99
2022-07-29T10:37:48.253Z,27.00
2022-07-29T10:38:48.300Z,27.10
2022-07-29T10:39:49.934Z,27.02
2022-07-29T10:40:48.207Z,26.99
2022-07-29T10:41:48.224Z,26.99
2022-07-29T10:42:48.180Z,26.89
2022-07-29T10:43:48.179Z,26.82
2022-07-29T10:44:48.182Z,26.89
2022-07-29T10:45:48.153Z,26.87
2022-07-29T10:46:48.251Z,26.88
2022-07-29T10:47:48.160Z,26.88
2022-07-29T10:48:48.143Z,26.89
2022-07-29T10:49:48.121Z,26.88
2022-07-29T10:50:48.087Z,26.87
2022-07-29T10:51:48.086Z,26.73
2022-07-29T10:52:48.065Z,26.73
2022-07-29T10:53:48.082Z,26.75
2022-07-29T10:54:48.052Z,26.80
2022-07-29T10:55:48.049Z,26.72
2022-07-29T10:56:48.020Z,26.72
2022-07-29T10:57:53.025Z,26.70
2022-07-29T10:58:52.786Z,26.60
2022-07-29T10:59:47.984Z,26.62
2022-07-29T11:00:48.020Z,26.72
2022-07-29T11:01:51.306Z,26.77
2022-07-29T11:02:50.111Z,26.94
2022-07-29T11:04:48.941Z,26.92
2022-07-29T11:05:47.942Z,26.97
2022-07-29T11:06:47.932Z,26.91
2022-07-29T11:07:47.912Z,27.00
2022-07-29T11:08:47.896Z,27.06
2022-07-29T11:09:47.884Z,27.04
2022-07-29T11:10:47.883Z,27.19
2022-07-29T11:11:51.335Z,27.19
2022-07-29T11:12:47.867Z,27.14
2022-07-29T11:13:49.005Z,27.21
2022-07-29T11:14:47.879Z,27.24
2022-07-29T11:15:47.815Z,27.36
2022-07-29T11:16:47.841Z,27.28
2022-07-29T11:17:52.250Z,27.24
2022-07-29T11:18:48.777Z,27.32
2022-07-29T11:19:52.283Z,27.29
2022-07-29T11:20:47.892Z,27.44
2022-07-29T11:21:55.231Z,27.44
2022-07-29T11:22:48.756Z,27.37
2022-07-29T11:23:47.756Z,27.41
2022-07-29T11:24:50.095Z,27.44
2022-07-29T11:25:50.671Z,27.47
2022-07-29T11:26:47.696Z,27.43
2022-07-29T11:27:48.098Z,27.41
2022-07-29T11:28:47.716Z,27.44
2022-07-29T11:29:47.691Z,27.51
2022-07-29T11:30:47.647Z,27.62
2022-07-29T11:31:47.816Z,27.62
2022-07-29T11:32:48.680Z,27.69
2022-07-29T11:33:56.233Z,27.70
2022-07-29T11:34:48.644Z,27.67
2022-07-29T11:35:53.728Z,27.66
2022-07-29T11:36:48.651Z,27.69
2022-07-29T11:37:55.225Z,27.63
2022-07-29T11:38:48.570Z,27.63
2022-07-29T11:39:47.573Z,27.69
2022-07-29T11:40:47.573Z,27.66
2022-07-29T11:41:47.551Z,27.54
2022-07-29T11:42:47.543Z,27.54
2022-07-29T11:43:47.511Z,27.49
2022-07-29T11:44:47.527Z,27.55
2022-07-29T11:45:47.492Z,27.57
2022-07-29T11:46:47.523Z,27.59
2022-07-29T11:47:47.494Z,27.59
2022-07-29T11:48:47.504Z,27.60
2022-07-29T11:49:47.503Z,27.60
2022-07-29T11:50:48.154Z,27.72
2022-07-29T11:51:48.557Z,27.69
2022-07-29T11:52:49.656Z,27.75
2022-07-29T11:53:47.400Z,27.79
2022-07-29T11:54:58.072Z,27.81
2022-07-29T11:55:50.814Z,27.75
2022-07-29T11:56:47.384Z,27.75
2022-07-29T11:57:47.383Z,27.70
2022-07-29T11:58:48.343Z,27.75
2022-07-29T11:59:47.337Z,27.75
2022-07-29T12:00:47.322Z,27.75
2022-07-29T12:01:47.336Z,27.70
2022-07-29T12:02:48.489Z,27.70
2022-07-29T12:03:47.736Z,27.54
2022-07-29T12:04:47.302Z,27.57
2022-07-29T12:05:48.137Z,27.55
2022-07-29T12:06:47.258Z,27.55
2022-07-29T12:07:47.321Z,27.57
2022-07-29T12:08:47.362Z,27.54
2022-07-29T12:09:47.257Z,27.43
2022-07-29T12:10:47.242Z,27.40
2022-07-29T12:11:47.491Z,27.54
2022-07-29T12:12:47.197Z,27.44
2022-07-29T12:13:47.214Z,27.40
2022-07-29T12:14:47.177Z,27.43
2022-07-29T12:15:47.477Z,27.31
2022-07-29T12:16:47.276Z,27.36
2022-07-29T12:17:47.138Z,27.27
2022-07-29T12:18:47.142Z,27.29
2022-07-29T12:19:47.113Z,27.29
2022-07-29T12:20:47.137Z,27.29
2022-07-29T12:21:57.022Z,27.31
2022-07-29T12:22:48.087Z,27.27
2022-07-29T12:23:47.089Z,27.31
2022-07-29T12:24:47.087Z,27.47
2022-07-29T12:25:49.644Z,27.59
2022-07-29T12:26:47.054Z,27.65
2022-07-29T12:27:47.065Z,27.79
2022-07-29T12:28:47.073Z,27.75
2022-07-29T12:29:48.922Z,27.78
2022-07-29T12:30:47.016Z,27.82
2022-07-29T12:31:46.999Z,27.97
2022-07-29T12:32:46.995Z,27.96
2022-07-29T12:33:47.005Z,28.07
2022-07-29T12:34:46.956Z,28.18
2022-07-29T12:35:58.108Z,28.31
2022-07-29T12:36:47.965Z,28.29
2022-07-29T12:37:46.974Z,28.33
2022-07-29T12:38:46.933Z,28.48
2022-07-29T12:39:46.893Z,28.61
2022-07-29T12:40:46.891Z,28.71
2022-07-29T12:41:46.871Z,28.78
2022-07-29T12:42:46.912Z,28.78
2022-07-29T12:43:46.865Z,28.68
2022-07-29T12:44:46.861Z,28.68
2022-07-29T12:45:46.834Z,28.66
2022-07-29T12:46:46.899Z,28.73
2022-07-29T12:47:46.840Z,28.83
2022-07-29T12:48:46.903Z,28.83
2022-07-29T12:49:46.810Z,28.88
2022-07-29T12:50:46.812Z,28.92
2022-07-29T12:51:46.768Z,28.93
2022-07-29T12:52:46.774Z,28.88
2022-07-29T12:53:46.750Z,28.88
2022-07-29T12:54:46.792Z,28.81
2022-07-29T12:55:46.743Z,28.85